This is the latest recevied weather packets stored in our database for station/object KC8TAI. If no packets are shown the sender has not sent any weather packets the latest 10 day(s).
| Time | Temp. | Humidity | Pressure | Rain* | Wind** | Luminosity | Snow |
|---|---|---|---|---|---|---|---|
| 1777698316 | 4.44° C | 89% | 1015.9 hPa | 0 mm | - | 0 W/m² | - |
| 1777689941 | 5.56° C | 92% | 1015.1 hPa | 0 mm | - | 0 W/m² | - |
| 1777685716 | 6.67° C | 89% | 1014.4 hPa | 1.02 mm | - | 0 W/m² | - |
| 1777677915 | 8.33° C | 86% | 1012.6 hPa | 0.76 mm | - | 13 W/m² | - |
| 1777673117 | 11.11° C | 70% | 1012.4 hPa | 0.25 mm | - | 49 W/m² | - |
| 1777671318 | 12.78° C | 56% | 1011.4 hPa | 0 mm | - | 84 W/m² | - |
| 1777670718 | 13.33° C | 55% | 1011.6 hPa | 0 mm | - | 82 W/m² | - |
| 1777668315 | 14.44° C | 47% | 1010.3 hPa | 0 mm | - | 134 W/m² | - |
| 1777667716 | 14.44° C | 47% | 1010.3 hPa | 0 mm | - | 161 W/m² | - |
| 1777659918 | 15.56° C | 42% | 1010.7 hPa | 0 mm | - | 597 W/m² | - |
| 1777655716 | 14.44° C | 48% | 1011.3 hPa | 0 mm | - | 698 W/m² | - |
| 1777647316 | 11.11° C | 64% | 1013.3 hPa | 0 mm | - | 414 W/m² | - |
| 1777646715 | 11.11° C | 67% | 1013.5 hPa | 0 mm | - | 354 W/m² | - |
| 1777645536 | 10° C | 75% | 1013.5 hPa | 0 mm | - | 492 W/m² | - |
| 1777641317 | 6.67° C | 96% | 1013.9 hPa | 0 mm | - | 415 W/m² | - |
| 1777640117 | 5.56° C | 99% | 1013.9 hPa | 0 mm | - | 453 W/m² | - |
| 1777639518 | 4.44° C | 99% | 1013.9 hPa | 0 mm | - | 379 W/m² | - |
| 1777636518 | 1.11° C | 99% | 1014.9 hPa | 0 mm | - | 122 W/m² | - |
| 1777634139 | 0° C | 99% | 1015.2 hPa | 0 mm | - | 49 W/m² | - |
| 1777619723 | 0.56° C | 98% | 1014.9 hPa | 0 mm | - | 0 W/m² | - |
| 1777613145 | 1.11° C | 98% | 1015.7 hPa | 0 mm | - | 0 W/m² | - |
| 1777611336 | 1.67° C | 97% | 1015.7 hPa | 0 mm | - | 0 W/m² | - |
| 1777610717 | 1.67° C | 97% | 1015.8 hPa | 0 mm | - | 0 W/m² | - |
| 1777610117 | 1.67° C | 97% | 1015.8 hPa | 0 mm | - | 0 W/m² | - |
| 1777605918 | 2.22° C | 96% | 1015.9 hPa | 0 mm | - | 0 W/m² | - |
* Rain latest hour (hover to see other rain measurements)
** Current wind speed in m/s (hover to see current wind gust speed)